createdAt,value
2022-07-29T00:01:48.380Z,2.05
2022-07-29T00:04:21.676Z,2.15
2022-07-29T00:06:51.637Z,2.08
2022-07-29T00:09:21.386Z,2.10
2022-07-29T00:11:51.145Z,2.25
2022-07-29T00:14:20.873Z,1.83
2022-07-29T00:16:50.551Z,2.05
2022-07-29T00:19:23.308Z,2.20
2022-07-29T00:21:52.919Z,2.10
2022-07-29T00:24:22.593Z,1.83
2022-07-29T00:26:52.211Z,2.30
2022-07-29T00:29:37.630Z,2.17
2022-07-29T00:32:07.629Z,1.98
2022-07-29T00:34:52.345Z,1.80
2022-07-29T00:37:22.233Z,1.92
2022-07-29T00:39:51.843Z,2.00
2022-07-29T00:42:21.532Z,2.15
2022-07-29T00:44:51.190Z,2.20
2022-07-29T00:47:20.932Z,2.10
2022-07-29T00:49:53.216Z,2.13
2022-07-29T00:52:24.315Z,1.95
2022-07-29T00:54:53.965Z,2.00
2022-07-29T00:57:24.066Z,2.88
2022-07-29T00:59:53.690Z,2.05
2022-07-29T01:02:23.492Z,2.20
2022-07-29T01:04:57.994Z,2.33
2022-07-29T01:07:28.603Z,2.20
2022-07-29T01:09:59.035Z,2.00
2022-07-29T01:12:30.953Z,2.10
2022-07-29T01:15:00.609Z,2.20
2022-07-29T01:17:33.018Z,2.33
2022-07-29T01:20:08.162Z,1.80
2022-07-29T01:22:50.631Z,2.15
2022-07-29T01:25:28.609Z,1.98
2022-07-29T01:28:12.742Z,2.20
2022-07-29T01:30:46.175Z,1.95
2022-07-29T01:33:40.712Z,2.03
2022-07-29T01:38:42.271Z,1.92
2022-07-29T01:41:13.936Z,2.53
2022-07-29T01:43:48.384Z,2.20
2022-07-29T01:46:25.152Z,1.92
2022-07-29T01:48:58.799Z,2.13
2022-07-29T01:51:31.984Z,2.20
2022-07-29T01:54:04.955Z,2.15
2022-07-29T01:56:35.353Z,2.30
2022-07-29T01:59:05.745Z,2.25
2022-07-29T02:01:39.184Z,2.40
2022-07-29T02:04:10.896Z,2.00
2022-07-29T02:06:42.427Z,2.00
2022-07-29T02:09:13.450Z,1.98
2022-07-29T02:11:44.238Z,2.42
2022-07-29T02:14:15.266Z,2.17
2022-07-29T02:16:48.246Z,2.40
2022-07-29T02:19:18.328Z,2.13
2022-07-29T02:21:48.939Z,1.67
2022-07-29T02:24:20.429Z,2.22
2022-07-29T02:26:51.757Z,2.30
2022-07-29T02:29:23.703Z,2.20
2022-07-29T02:31:56.716Z,2.22
2022-07-29T02:34:27.384Z,2.07
2022-07-29T02:36:58.177Z,2.20
2022-07-29T02:39:29.861Z,2.30
2022-07-29T02:42:03.023Z,2.08
2022-07-29T02:44:34.781Z,2.35
2022-07-29T02:47:15.157Z,2.22
2022-07-29T02:49:49.246Z,2.20
2022-07-29T02:52:23.066Z,2.42
2022-07-29T02:54:56.080Z,2.50
2022-07-29T02:57:28.304Z,2.33
2022-07-29T03:00:04.209Z,2.60
2022-07-29T03:02:38.102Z,2.30
2022-07-29T03:07:40.868Z,2.30
2022-07-29T03:10:13.627Z,2.45
2022-07-29T03:12:44.145Z,2.37
2022-07-29T03:15:14.482Z,2.33
2022-07-29T03:17:47.290Z,2.30
2022-07-29T03:20:17.491Z,2.47
2022-07-29T03:22:48.565Z,2.63
2022-07-29T03:25:19.710Z,2.25
2022-07-29T03:27:50.148Z,2.40
2022-07-29T03:30:22.207Z,2.72
2022-07-29T03:32:56.645Z,2.58
2022-07-29T03:35:28.570Z,2.50
2022-07-29T03:37:58.706Z,2.42
2022-07-29T03:40:31.779Z,2.40
2022-07-29T03:43:03.124Z,2.70
2022-07-29T03:45:34.470Z,2.53
2022-07-29T03:48:10.611Z,3.00
2022-07-29T03:50:40.412Z,3.00
2022-07-29T03:53:10.168Z,2.80
2022-07-29T03:55:44.065Z,2.83
2022-07-29T04:00:43.762Z,2.60
2022-07-29T04:03:16.917Z,2.13
2022-07-29T04:05:46.767Z,2.80
2022-07-29T04:08:16.454Z,2.40
2022-07-29T04:10:46.555Z,2.38
2022-07-29T04:13:16.563Z,2.50
2022-07-29T04:15:46.296Z,2.55
2022-07-29T04:18:19.355Z,2.35
2022-07-29T04:20:49.174Z,2.50
2022-07-29T04:23:19.204Z,2.30
2022-07-29T04:25:49.031Z,2.50
2022-07-29T04:28:19.013Z,2.47
2022-07-29T04:30:48.739Z,2.50
2022-07-29T04:33:21.145Z,2.40
2022-07-29T04:35:55.020Z,2.60
2022-07-29T04:38:26.798Z,2.42
2022-07-29T04:40:56.482Z,2.53
2022-07-29T04:43:26.779Z,2.65
2022-07-29T04:45:56.694Z,2.60
2022-07-29T04:48:29.092Z,2.78
2022-07-29T04:50:58.897Z,2.30
2022-07-29T04:53:29.340Z,2.70
2022-07-29T04:55:59.273Z,2.30
2022-07-29T04:58:29.140Z,2.30
2022-07-29T05:00:58.979Z,2.40
2022-07-29T05:03:31.365Z,2.70
2022-07-29T05:06:01.026Z,2.20
2022-07-29T05:08:30.732Z,2.22
2022-07-29T05:11:11.326Z,2.38
2022-07-29T05:13:45.749Z,2.40
2022-07-29T05:16:17.418Z,2.35
2022-07-29T05:18:50.066Z,2.38
2022-07-29T05:21:19.722Z,2.95
2022-07-29T05:23:49.449Z,2.60
2022-07-29T05:26:21.469Z,2.90
2022-07-29T05:28:51.697Z,2.50
2022-07-29T05:31:21.425Z,2.70
2022-07-29T05:33:53.830Z,2.45
2022-07-29T05:36:23.498Z,2.30
2022-07-29T05:38:53.169Z,2.08
2022-07-29T05:41:22.838Z,2.38
2022-07-29T05:43:52.951Z,2.42
2022-07-29T05:46:22.625Z,2.38
2022-07-29T05:48:55.010Z,2.25
2022-07-29T05:51:24.714Z,2.38
2022-07-29T05:53:54.461Z,2.28
2022-07-29T05:56:24.385Z,2.50
2022-07-29T05:58:54.374Z,2.55
2022-07-29T06:01:24.357Z,2.40
2022-07-29T06:03:57.000Z,2.50
2022-07-29T06:06:26.760Z,2.63
2022-07-29T06:08:56.470Z,2.55
2022-07-29T06:11:26.379Z,2.70
2022-07-29T06:13:56.410Z,2.47
2022-07-29T06:16:30.166Z,2.45
2022-07-29T06:19:02.710Z,2.35
2022-07-29T06:21:32.370Z,2.55
2022-07-29T06:24:02.510Z,2.30
2022-07-29T06:26:35.281Z,2.10
2022-07-29T06:29:09.038Z,2.40
2022-07-29T06:31:38.672Z,2.25
2022-07-29T06:34:11.338Z,1.98
2022-07-29T06:36:41.574Z,2.33
2022-07-29T06:39:12.365Z,2.45
2022-07-29T06:41:42.249Z,2.42
2022-07-29T06:44:15.146Z,2.40
2022-07-29T06:46:45.346Z,2.50
2022-07-29T06:49:17.722Z,2.58
2022-07-29T06:51:47.620Z,2.50
2022-07-29T06:54:17.718Z,2.80
2022-07-29T06:56:47.810Z,2.20
2022-07-29T06:59:17.584Z,2.20
2022-07-29T07:01:47.617Z,2.42
2022-07-29T07:04:20.341Z,2.28
2022-07-29T07:06:51.698Z,2.15
2022-07-29T07:09:21.304Z,2.10
2022-07-29T07:11:50.978Z,2.15
2022-07-29T07:14:21.250Z,2.28
2022-07-29T07:16:52.701Z,2.38
2022-07-29T07:19:27.006Z,2.03
2022-07-29T07:21:57.160Z,2.40
2022-07-29T07:24:27.045Z,2.10
2022-07-29T07:26:57.931Z,2.47
2022-07-29T07:29:27.581Z,2.42
2022-07-29T07:32:00.761Z,2.95
2022-07-29T07:34:33.953Z,5.15
2022-07-29T07:37:08.593Z,2.90
2022-07-29T07:39:38.384Z,2.90
2022-07-29T07:42:08.287Z,2.50
2022-07-29T07:44:57.192Z,2.53
2022-07-29T07:47:27.944Z,2.70
2022-07-29T07:50:01.198Z,2.50
2022-07-29T07:52:30.893Z,2.47
2022-07-29T07:55:02.498Z,2.80
2022-07-29T07:57:32.249Z,3.08
2022-07-29T08:00:01.929Z,2.72
2022-07-29T08:02:43.891Z,2.88
2022-07-29T08:05:18.052Z,3.00
2022-07-29T08:07:49.027Z,3.22
2022-07-29T08:10:39.589Z,3.20
2022-07-29T08:13:11.891Z,3.28
2022-07-29T08:15:44.140Z,3.50
2022-07-29T08:18:14.116Z,3.28
2022-07-29T08:20:46.339Z,3.25
2022-07-29T08:23:16.605Z,3.28
2022-07-29T08:25:46.294Z,2.92
2022-07-29T08:28:20.347Z,3.22
2022-07-29T08:30:50.115Z,2.67
2022-07-29T08:33:21.396Z,3.28
2022-07-29T08:35:53.894Z,3.60
2022-07-29T08:38:23.850Z,3.28
2022-07-29T08:40:53.639Z,3.28
2022-07-29T08:43:23.446Z,2.90
2022-07-29T08:45:55.100Z,3.20
2022-07-29T08:48:27.030Z,3.15
2022-07-29T08:51:00.251Z,3.00
2022-07-29T08:53:31.621Z,3.33
2022-07-29T08:56:01.808Z,3.17
2022-07-29T08:58:36.781Z,3.50
2022-07-29T09:01:07.770Z,3.35
2022-07-29T09:03:44.299Z,3.75
2022-07-29T09:06:17.166Z,3.60
2022-07-29T09:08:46.971Z,3.20
2022-07-29T09:11:17.098Z,3.20
2022-07-29T09:13:47.578Z,3.60
2022-07-29T09:16:37.266Z,3.03
2022-07-29T09:19:23.496Z,3.13
2022-07-29T09:22:03.602Z,2.97
2022-07-29T09:24:42.753Z,3.45
2022-07-29T09:27:22.725Z,3.13
2022-07-29T09:30:00.533Z,3.30
2022-07-29T09:32:30.597Z,5.95
2022-07-29T09:35:18.290Z,3.35
2022-07-29T09:37:51.345Z,2.88
2022-07-29T09:40:22.667Z,3.33
2022-07-29T09:42:53.873Z,3.10
2022-07-29T09:45:34.208Z,2.90
2022-07-29T09:48:18.358Z,3.10
2022-07-29T09:53:38.790Z,3.75
2022-07-29T09:56:08.834Z,3.55
2022-07-29T09:58:39.577Z,3.70
2022-07-29T10:01:09.351Z,3.50
2022-07-29T10:03:54.586Z,3.80
2022-07-29T10:06:24.336Z,3.80
2022-07-29T10:08:57.537Z,3.65
2022-07-29T10:11:27.196Z,3.30
2022-07-29T10:14:17.226Z,3.22
2022-07-29T10:16:47.489Z,4.75
2022-07-29T10:19:17.550Z,3.35
2022-07-29T10:21:47.689Z,4.00
2022-07-29T10:24:20.519Z,4.05
2022-07-29T10:26:50.240Z,3.40
2022-07-29T10:29:19.925Z,3.85
2022-07-29T10:31:57.069Z,3.72
2022-07-29T10:34:35.817Z,5.82
2022-07-29T10:37:12.837Z,3.90
2022-07-29T10:39:57.330Z,4.03
2022-07-29T10:42:33.593Z,4.03
2022-07-29T10:45:04.881Z,3.80
2022-07-29T10:47:35.704Z,4.70
2022-07-29T10:50:07.634Z,3.80
2022-07-29T10:52:59.479Z,3.58
2022-07-29T10:55:43.708Z,3.80
2022-07-29T10:58:19.427Z,3.55
2022-07-29T11:00:49.707Z,3.65
2022-07-29T11:03:49.028Z,4.07
2022-07-29T11:06:26.859Z,3.92
2022-07-29T11:09:20.063Z,4.00
2022-07-29T11:11:53.248Z,3.85
2022-07-29T11:15:01.553Z,4.17
2022-07-29T11:17:46.871Z,4.50
2022-07-29T11:20:42.486Z,4.30
2022-07-29T11:23:25.470Z,3.65
2022-07-29T11:26:23.194Z,3.55
2022-07-29T11:29:01.730Z,3.00
2022-07-29T11:31:40.308Z,3.13
2022-07-29T11:34:28.039Z,3.20
2022-07-29T11:37:34.814Z,2.92
2022-07-29T11:40:21.459Z,2.95
2022-07-29T11:42:52.833Z,3.17
2022-07-29T11:45:43.739Z,3.22
2022-07-29T11:48:28.541Z,3.20
2022-07-29T11:51:00.572Z,3.03
2022-07-29T11:53:33.074Z,3.10
2022-07-29T11:56:03.876Z,3.28
2022-07-29T11:58:34.178Z,3.20
2022-07-29T12:01:07.321Z,2.80
2022-07-29T12:03:37.325Z,3.38
2022-07-29T12:06:08.302Z,3.40
2022-07-29T12:08:44.924Z,5.00
2022-07-29T12:11:22.774Z,3.67
2022-07-29T12:13:53.226Z,3.25
2022-07-29T12:16:29.376Z,3.13
2022-07-29T12:19:03.960Z,3.47
2022-07-29T12:21:53.900Z,3.30
2022-07-29T12:24:27.304Z,3.38
2022-07-29T12:26:59.752Z,4.82
2022-07-29T12:29:33.908Z,3.90
2022-07-29T12:32:15.096Z,3.00
2022-07-29T12:34:49.780Z,3.33
2022-07-29T12:37:19.686Z,2.90
2022-07-29T12:40:00.632Z,3.00
2022-07-29T12:42:30.254Z,2.65
2022-07-29T12:44:59.905Z,2.67
2022-07-29T12:47:32.498Z,2.83
2022-07-29T12:50:15.352Z,2.80
2022-07-29T12:52:45.056Z,3.00
2022-07-29T12:55:15.586Z,2.90
2022-07-29T12:57:51.628Z,3.10
2022-07-29T13:00:26.422Z,3.90
2022-07-29T13:03:01.841Z,3.45
2022-07-29T13:05:48.568Z,2.60
2022-07-29T13:08:22.243Z,2.63
2022-07-29T13:13:22.159Z,2.08
2022-07-29T13:16:09.549Z,2.65
2022-07-29T13:18:42.324Z,2.47
2022-07-29T13:21:16.101Z,2.20
2022-07-29T13:23:46.656Z,2.88
2022-07-29T13:26:17.334Z,2.70
2022-07-29T13:28:46.986Z,2.58
2022-07-29T13:31:16.750Z,2.80
2022-07-29T13:33:49.038Z,2.83
2022-07-29T13:36:18.683Z,3.53
2022-07-29T13:38:48.357Z,3.75
2022-07-29T13:41:18.004Z,3.22
2022-07-29T13:43:47.911Z,3.05
2022-07-29T13:46:19.895Z,2.90
2022-07-29T13:48:52.483Z,2.85
2022-07-29T13:51:22.179Z,3.30
2022-07-29T13:53:51.854Z,3.00
2022-07-29T13:56:21.492Z,3.10
2022-07-29T13:58:51.407Z,4.30
2022-07-29T14:01:21.303Z,3.50
2022-07-29T14:03:53.669Z,2.90
2022-07-29T14:06:23.283Z,2.90
2022-07-29T14:08:53.036Z,3.22
2022-07-29T14:11:22.759Z,2.92
2022-07-29T14:13:52.378Z,2.70
2022-07-29T14:16:22.070Z,2.63
2022-07-29T14:18:54.372Z,3.00
2022-07-29T14:21:24.058Z,2.90
2022-07-29T14:23:55.646Z,2.90
2022-07-29T14:26:26.388Z,3.00
2022-07-29T14:28:57.096Z,2.90
2022-07-29T14:31:26.888Z,3.22
2022-07-29T14:34:02.717Z,3.00
2022-07-29T14:36:33.073Z,2.95
2022-07-29T14:39:02.782Z,2.80
2022-07-29T14:41:32.404Z,2.63
2022-07-29T14:44:02.443Z,2.90
2022-07-29T14:46:32.250Z,2.70
2022-07-29T14:49:04.631Z,3.80
2022-07-29T14:51:36.598Z,2.97
2022-07-29T14:54:06.376Z,2.83
2022-07-29T14:56:37.538Z,2.65
2022-07-29T14:59:07.646Z,2.92
2022-07-29T15:01:37.315Z,2.90
2022-07-29T15:04:09.674Z,3.17
2022-07-29T15:06:40.661Z,2.80
2022-07-29T15:09:10.378Z,2.88
2022-07-29T15:11:40.037Z,3.35
2022-07-29T15:14:10.005Z,3.35
2022-07-29T15:16:43.714Z,4.82
2022-07-29T15:19:18.828Z,2.80
2022-07-29T15:21:49.224Z,3.25
2022-07-29T15:24:19.219Z,3.20
2022-07-29T15:26:49.525Z,3.13
2022-07-29T15:29:19.402Z,3.03
2022-07-29T15:31:49.089Z,2.83
2022-07-29T15:34:21.602Z,2.90
2022-07-29T15:36:52.794Z,3.50
2022-07-29T15:39:23.257Z,3.08
2022-07-29T15:41:53.593Z,3.10
2022-07-29T15:44:23.889Z,2.97
2022-07-29T15:47:08.985Z,3.20
2022-07-29T15:49:47.401Z,3.15
2022-07-29T15:52:26.215Z,2.90
2022-07-29T15:54:56.616Z,3.38
2022-07-29T15:57:27.155Z,3.10
2022-07-29T15:59:57.264Z,2.92
2022-07-29T16:02:26.917Z,3.10
2022-07-29T16:04:59.157Z,2.85
2022-07-29T16:07:31.727Z,2.80
2022-07-29T16:12:31.934Z,3.15
2022-07-29T16:15:06.186Z,2.75
2022-07-29T16:17:38.974Z,3.03
2022-07-29T16:20:13.909Z,3.08
2022-07-29T16:22:43.720Z,3.08
2022-07-29T16:25:13.361Z,3.28
2022-07-29T16:27:43.052Z,3.10
2022-07-29T16:30:13.846Z,3.03
2022-07-29T16:32:43.507Z,3.08
2022-07-29T16:35:15.767Z,2.67
2022-07-29T16:37:45.388Z,3.20
2022-07-29T16:40:15.559Z,2.75
2022-07-29T16:42:47.070Z,2.80
2022-07-29T16:45:17.995Z,3.20
2022-07-29T16:47:50.736Z,2.90
2022-07-29T16:50:23.802Z,2.90
2022-07-29T16:52:53.524Z,3.30
2022-07-29T16:55:23.385Z,2.80
2022-07-29T16:57:53.509Z,2.70
2022-07-29T17:00:24.927Z,2.90
2022-07-29T17:02:54.618Z,2.55
2022-07-29T17:05:26.949Z,2.80
2022-07-29T17:07:58.462Z,2.80
2022-07-29T17:10:29.974Z,3.33
2022-07-29T17:12:59.757Z,4.03
2022-07-29T17:15:29.534Z,2.65
2022-07-29T17:18:00.720Z,3.00
2022-07-29T17:20:33.240Z,2.90
2022-07-29T17:23:02.961Z,3.05
2022-07-29T17:25:32.697Z,3.17
2022-07-29T17:28:02.402Z,3.10
2022-07-29T17:30:32.214Z,2.80
2022-07-29T17:33:01.889Z,3.28
2022-07-29T17:35:46.595Z,3.10
2022-07-29T17:38:16.228Z,3.13
2022-07-29T17:40:45.937Z,3.90
2022-07-29T17:43:15.583Z,2.95
2022-07-29T17:45:49.502Z,3.28
2022-07-29T17:48:21.087Z,5.60
2022-07-29T17:50:53.745Z,2.80
2022-07-29T17:53:23.442Z,3.15
2022-07-29T17:55:53.085Z,3.00
2022-07-29T17:58:23.131Z,2.80
2022-07-29T18:00:53.009Z,2.90
2022-07-29T18:03:22.990Z,3.20
2022-07-29T18:05:56.132Z,3.35
2022-07-29T18:08:25.782Z,3.03
2022-07-29T18:10:56.567Z,3.00
2022-07-29T18:13:26.427Z,3.20
2022-07-29T18:16:00.060Z,3.00
2022-07-29T18:18:30.348Z,2.72
2022-07-29T18:21:02.610Z,5.38
2022-07-29T18:23:32.294Z,3.60
2022-07-29T18:26:01.958Z,3.20
2022-07-29T18:28:32.759Z,2.75
2022-07-29T18:31:02.559Z,3.10
2022-07-29T18:33:32.723Z,3.15
2022-07-29T18:36:11.263Z,3.60
2022-07-29T18:38:41.806Z,3.03
2022-07-29T18:41:11.574Z,2.92
2022-07-29T18:43:41.380Z,3.15
2022-07-29T18:46:11.071Z,3.10
2022-07-29T18:48:42.582Z,3.10
2022-07-29T18:51:14.854Z,3.08
2022-07-29T18:53:46.075Z,3.20
2022-07-29T18:56:15.733Z,3.30
2022-07-29T18:58:45.369Z,3.17
2022-07-29T19:01:16.840Z,3.35
2022-07-29T19:03:46.584Z,3.10
2022-07-29T19:06:22.670Z,3.22
2022-07-29T19:08:55.042Z,3.05
2022-07-29T19:11:24.920Z,5.38
2022-07-29T19:13:54.579Z,5.20
2022-07-29T19:16:24.259Z,3.22
2022-07-29T19:18:53.968Z,3.30
2022-07-29T19:21:28.353Z,3.30
2022-07-29T19:24:02.473Z,3.17
2022-07-29T19:26:43.982Z,4.43
2022-07-29T19:29:13.646Z,4.13
2022-07-29T19:31:43.403Z,3.20
2022-07-29T19:34:13.249Z,3.85
2022-07-29T19:36:45.660Z,3.28
2022-07-29T19:39:15.448Z,3.20
2022-07-29T19:41:45.120Z,3.35
2022-07-29T19:44:15.599Z,3.08
2022-07-29T19:46:45.508Z,3.05
2022-07-29T19:49:15.489Z,3.20
2022-07-29T19:51:47.760Z,3.20
2022-07-29T19:54:18.390Z,3.20
2022-07-29T19:56:48.062Z,3.38
2022-07-29T19:59:17.712Z,3.38
2022-07-29T20:01:53.622Z,3.47
2022-07-29T20:04:23.330Z,4.60
2022-07-29T20:07:01.239Z,5.47
2022-07-29T20:09:31.622Z,11.52
2022-07-29T20:12:01.812Z,13.02
2022-07-29T20:14:31.717Z,6.65
2022-07-29T20:17:01.952Z,6.90
2022-07-29T20:19:32.929Z,3.78
2022-07-29T20:22:05.226Z,4.38
2022-07-29T20:24:34.875Z,13.52
2022-07-29T20:27:04.647Z,6.43
2022-07-29T20:29:43.409Z,4.13
2022-07-29T20:32:13.495Z,5.80
2022-07-29T20:34:43.965Z,5.63
2022-07-29T20:37:17.823Z,4.68
2022-07-29T20:42:17.767Z,4.80
2022-07-29T20:44:49.448Z,4.88
2022-07-29T20:47:20.900Z,12.68
2022-07-29T20:49:50.781Z,9.70
2022-07-29T20:52:23.554Z,11.57
2022-07-29T20:54:53.292Z,5.57
2022-07-29T20:57:38.463Z,4.85
2022-07-29T21:00:11.579Z,6.30
2022-07-29T21:02:41.934Z,6.22
2022-07-29T21:05:12.493Z,8.07
2022-07-29T21:07:44.849Z,6.18
2022-07-29T21:10:15.039Z,6.15
2022-07-29T21:12:44.749Z,5.80
2022-07-29T21:15:15.470Z,6.10
2022-07-29T21:17:49.091Z,9.95
2022-07-29T21:20:19.808Z,9.18
2022-07-29T21:22:55.483Z,6.22
2022-07-29T21:25:25.532Z,6.75
2022-07-29T21:28:07.659Z,6.13
2022-07-29T21:30:37.488Z,6.60
2022-07-29T21:33:07.485Z,9.45
2022-07-29T21:36:01.499Z,8.82
2022-07-29T21:38:29.417Z,6.20
2022-07-29T21:40:59.619Z,5.93
2022-07-29T21:43:29.746Z,5.70
2022-07-29T21:46:00.139Z,7.97
2022-07-29T21:48:31.278Z,9.90
2022-07-29T21:51:00.926Z,9.07
2022-07-29T21:53:33.186Z,9.40
2022-07-29T21:56:03.439Z,8.82
2022-07-29T21:58:35.688Z,8.88
2022-07-29T22:01:05.353Z,7.75
2022-07-29T22:03:35.110Z,9.68
2022-07-29T22:06:04.828Z,8.00
2022-07-29T22:08:38.413Z,6.90
2022-07-29T22:11:08.055Z,9.43
2022-07-29T22:13:37.737Z,9.88
2022-07-29T22:16:09.549Z,8.38
2022-07-29T22:18:39.234Z,8.02
2022-07-29T22:21:08.858Z,8.40
2022-07-29T22:23:41.318Z,8.25
2022-07-29T22:26:11.082Z,7.45
2022-07-29T22:28:40.799Z,6.53
2022-07-29T22:31:10.695Z,7.00
2022-07-29T22:33:40.480Z,6.35
2022-07-29T22:36:10.830Z,6.50
2022-07-29T22:38:43.126Z,7.28
2022-07-29T22:41:15.576Z,7.40
2022-07-29T22:43:45.402Z,6.70
2022-07-29T22:46:15.062Z,6.95
2022-07-29T22:48:45.001Z,6.10
2022-07-29T22:51:14.690Z,6.05
2022-07-29T22:53:47.042Z,6.22
2022-07-29T22:56:16.741Z,6.32
2022-07-29T22:58:46.402Z,6.22
2022-07-29T23:01:16.123Z,6.32
2022-07-29T23:03:50.943Z,5.60
2022-07-29T23:06:21.197Z,6.13
2022-07-29T23:08:53.443Z,6.03
2022-07-29T23:11:23.061Z,6.47
2022-07-29T23:13:52.765Z,6.25
2022-07-29T23:16:26.296Z,6.60
2022-07-29T23:18:56.774Z,7.80
2022-07-29T23:21:26.459Z,7.60
2022-07-29T23:23:59.101Z,12.27
2022-07-29T23:26:28.742Z,8.77
2022-07-29T23:28:58.388Z,7.35
2022-07-29T23:31:28.075Z,7.53
2022-07-29T23:33:57.696Z,6.80
2022-07-29T23:36:27.328Z,6.68
2022-07-29T23:39:00.153Z,7.20
2022-07-29T23:41:32.444Z,5.60
2022-07-29T23:44:02.111Z,5.63
2022-07-29T23:46:31.822Z,5.70
2022-07-29T23:49:01.583Z,6.18
2022-07-29T23:51:31.743Z,5.72
2022-07-29T23:54:04.002Z,5.80
2022-07-29T23:56:33.626Z,6.07
2022-07-29T23:59:05.683Z,6.18
